sensor_id;sensor_type;location;lat;lon;timestamp;P1;durP1;ratioP1;P2;durP2;ratioP2
32455;SDS011;18912;43.270;27.942;2023-09-19T00:00:36;12.70;;;5.60;;
32455;SDS011;18912;43.270;27.942;2023-09-19T00:03:02;11.43;;;5.35;;
32455;SDS011;18912;43.270;27.942;2023-09-19T00:05:30;10.65;;;5.45;;
32455;SDS011;18912;43.270;27.942;2023-09-19T00:08:00;10.05;;;5.13;;
32455;SDS011;18912;43.270;27.942;2023-09-19T00:10:26;12.43;;;5.43;;
32455;SDS011;18912;43.270;27.942;2023-09-19T00:12:56;8.68;;;5.60;;
32455;SDS011;18912;43.270;27.942;2023-09-19T00:15:23;11.48;;;4.90;;
32455;SDS011;18912;43.270;27.942;2023-09-19T00:17:49;11.45;;;5.72;;
32455;SDS011;18912;43.270;27.942;2023-09-19T00:20:17;18.15;;;5.90;;
32455;SDS011;18912;43.270;27.942;2023-09-19T00:22:43;8.95;;;5.70;;
32455;SDS011;18912;43.270;27.942;2023-09-19T00:25:09;14.37;;;6.17;;
32455;SDS011;18912;43.270;27.942;2023-09-19T00:27:40;12.88;;;5.80;;
32455;SDS011;18912;43.270;27.942;2023-09-19T00:30:08;11.23;;;5.30;;
32455;SDS011;18912;43.270;27.942;2023-09-19T00:32:49;8.65;;;5.40;;
32455;SDS011;18912;43.270;27.942;2023-09-19T00:35:19;8.45;;;5.57;;
32455;SDS011;18912;43.270;27.942;2023-09-19T00:37:51;10.80;;;5.90;;
32455;SDS011;18912;43.270;27.942;2023-09-19T00:40:17;7.90;;;5.20;;
32455;SDS011;18912;43.270;27.942;2023-09-19T00:42:43;7.57;;;5.30;;
32455;SDS011;18912;43.270;27.942;2023-09-19T00:45:11;8.52;;;5.32;;
32455;SDS011;18912;43.270;27.942;2023-09-19T00:47:47;10.90;;;5.13;;
32455;SDS011;18912;43.270;27.942;2023-09-19T00:50:14;7.10;;;5.40;;
32455;SDS011;18912;43.270;27.942;2023-09-19T00:52:42;9.18;;;5.55;;
32455;SDS011;18912;43.270;27.942;2023-09-19T00:55:09;8.82;;;5.65;;
32455;SDS011;18912;43.270;27.942;2023-09-19T00:57:36;9.07;;;5.72;;
32455;SDS011;18912;43.270;27.942;2023-09-19T01:00:06;13.60;;;5.68;;
32455;SDS011;18912;43.270;27.942;2023-09-19T01:02:36;10.10;;;5.57;;
32455;SDS011;18912;43.270;27.942;2023-09-19T01:05:02;9.10;;;5.60;;
32455;SDS011;18912;43.270;27.942;2023-09-19T01:07:29;9.65;;;5.95;;
32455;SDS011;18912;43.270;27.942;2023-09-19T01:09:59;7.20;;;4.95;;
32455;SDS011;18912;43.270;27.942;2023-09-19T01:12:38;10.00;;;5.82;;
32455;SDS011;18912;43.270;27.942;2023-09-19T01:15:21;8.50;;;5.45;;
32455;SDS011;18912;43.270;27.942;2023-09-19T01:21:23;14.55;;;5.70;;
32455;SDS011;18912;43.270;27.942;2023-09-19T01:23:23;7.93;;;5.82;;
32455;SDS011;18912;43.270;27.942;2023-09-19T01:31:08;7.35;;;5.40;;
32455;SDS011;18912;43.270;27.942;2023-09-19T01:36:25;9.27;;;5.85;;
32455;SDS011;18912;43.270;27.942;2023-09-19T01:38:51;12.88;;;5.60;;
32455;SDS011;18912;43.270;27.942;2023-09-19T01:41:21;9.65;;;6.00;;
32455;SDS011;18912;43.270;27.942;2023-09-19T01:43:55;10.93;;;6.18;;
32455;SDS011;18912;43.270;27.942;2023-09-19T01:46:25;11.68;;;5.88;;
32455;SDS011;18912;43.270;27.942;2023-09-19T01:49:15;10.10;;;6.15;;
32455;SDS011;18912;43.270;27.942;2023-09-19T01:52:11;8.73;;;5.55;;
32455;SDS011;18912;43.270;27.942;2023-09-19T01:54:51;13.27;;;5.72;;
32455;SDS011;18912;43.270;27.942;2023-09-19T01:57:27;9.48;;;5.90;;
32455;SDS011;18912;43.270;27.942;2023-09-19T02:00:13;16.10;;;5.80;;
32455;SDS011;18912;43.270;27.942;2023-09-19T02:02:43;8.65;;;6.13;;
32455;SDS011;18912;43.270;27.942;2023-09-19T02:05:12;7.07;;;5.00;;
32455;SDS011;18912;43.270;27.942;2023-09-19T02:07:38;15.60;;;6.93;;
32455;SDS011;18912;43.270;27.942;2023-09-19T02:10:05;11.05;;;5.43;;
32455;SDS011;18912;43.270;27.942;2023-09-19T02:12:32;9.77;;;5.68;;
32455;SDS011;18912;43.270;27.942;2023-09-19T02:14:59;14.80;;;6.30;;
32455;SDS011;18912;43.270;27.942;2023-09-19T02:17:25;10.20;;;5.90;;
32455;SDS011;18912;43.270;27.942;2023-09-19T02:19:54;10.85;;;6.00;;
32455;SDS011;18912;43.270;27.942;2023-09-19T02:24:46;14.15;;;5.70;;
32455;SDS011;18912;43.270;27.942;2023-09-19T02:27:13;13.93;;;5.97;;
32455;SDS011;18912;43.270;27.942;2023-09-19T02:29:41;15.18;;;6.43;;
32455;SDS011;18912;43.270;27.942;2023-09-19T02:32:09;12.38;;;5.70;;
32455;SDS011;18912;43.270;27.942;2023-09-19T02:34:35;13.63;;;5.88;;
32455;SDS011;18912;43.270;27.942;2023-09-19T02:37:02;11.63;;;6.80;;
32455;SDS011;18912;43.270;27.942;2023-09-19T02:39:30;12.77;;;6.43;;
32455;SDS011;18912;43.270;27.942;2023-09-19T02:41:59;12.60;;;5.50;;
32455;SDS011;18912;43.270;27.942;2023-09-19T02:44:25;13.67;;;6.33;;
32455;SDS011;18912;43.270;27.942;2023-09-19T02:46:50;12.57;;;5.50;;
32455;SDS011;18912;43.270;27.942;2023-09-19T02:49:16;10.87;;;5.60;;
32455;SDS011;18912;43.270;27.942;2023-09-19T02:51:43;11.90;;;6.03;;
32455;SDS011;18912;43.270;27.942;2023-09-19T02:54:09;10.68;;;6.00;;
32455;SDS011;18912;43.270;27.942;2023-09-19T02:56:35;12.97;;;5.67;;
32455;SDS011;18912;43.270;27.942;2023-09-19T02:59:00;10.53;;;5.77;;
32455;SDS011;18912;43.270;27.942;2023-09-19T03:01:27;10.90;;;5.88;;
32455;SDS011;18912;43.270;27.942;2023-09-19T03:03:53;11.70;;;6.80;;
32455;SDS011;18912;43.270;27.942;2023-09-19T03:08:45;14.55;;;5.90;;
32455;SDS011;18912;43.270;27.942;2023-09-19T03:11:11;9.00;;;5.85;;
32455;SDS011;18912;43.270;27.942;2023-09-19T03:13:40;9.80;;;5.80;;
32455;SDS011;18912;43.270;27.942;2023-09-19T03:16:06;9.70;;;5.65;;
32455;SDS011;18912;43.270;27.942;2023-09-19T03:18:35;13.50;;;5.90;;
32455;SDS011;18912;43.270;27.942;2023-09-19T03:21:01;10.18;;;5.03;;
32455;SDS011;18912;43.270;27.942;2023-09-19T03:23:27;9.23;;;6.40;;
32455;SDS011;18912;43.270;27.942;2023-09-19T03:25:53;9.85;;;6.03;;
32455;SDS011;18912;43.270;27.942;2023-09-19T03:28:22;13.20;;;6.38;;
32455;SDS011;18912;43.270;27.942;2023-09-19T03:31:04;11.48;;;6.80;;
32455;SDS011;18912;43.270;27.942;2023-09-19T03:33:30;10.77;;;6.72;;
32455;SDS011;18912;43.270;27.942;2023-09-19T03:35:58;10.80;;;5.63;;
32455;SDS011;18912;43.270;27.942;2023-09-19T03:38:24;9.75;;;6.20;;
32455;SDS011;18912;43.270;27.942;2023-09-19T03:40:50;9.07;;;6.28;;
32455;SDS011;18912;43.270;27.942;2023-09-19T03:43:16;12.40;;;6.17;;
32455;SDS011;18912;43.270;27.942;2023-09-19T03:45:42;10.75;;;6.82;;
32455;SDS011;18912;43.270;27.942;2023-09-19T03:48:10;14.60;;;6.93;;
32455;SDS011;18912;43.270;27.942;2023-09-19T03:50:36;11.85;;;6.95;;
32455;SDS011;18912;43.270;27.942;2023-09-19T03:53:02;17.20;;;6.10;;
32455;SDS011;18912;43.270;27.942;2023-09-19T03:55:28;11.43;;;6.25;;
32455;SDS011;18912;43.270;27.942;2023-09-19T03:57:57;15.93;;;6.03;;
32455;SDS011;18912;43.270;27.942;2023-09-19T04:00:23;10.83;;;5.40;;
32455;SDS011;18912;43.270;27.942;2023-09-19T04:02:51;17.58;;;6.47;;
32455;SDS011;18912;43.270;27.942;2023-09-19T04:05:18;10.68;;;6.20;;
32455;SDS011;18912;43.270;27.942;2023-09-19T04:07:44;10.55;;;5.95;;
32455;SDS011;18912;43.270;27.942;2023-09-19T04:10:09;10.07;;;6.80;;
32455;SDS011;18912;43.270;27.942;2023-09-19T04:12:36;11.20;;;6.22;;
32455;SDS011;18912;43.270;27.942;2023-09-19T04:15:02;9.80;;;6.18;;
32455;SDS011;18912;43.270;27.942;2023-09-19T04:17:28;9.43;;;6.32;;
32455;SDS011;18912;43.270;27.942;2023-09-19T04:19:54;11.80;;;6.60;;
32455;SDS011;18912;43.270;27.942;2023-09-19T04:22:19;14.07;;;7.40;;
32455;SDS011;18912;43.270;27.942;2023-09-19T04:24:45;16.83;;;7.93;;
32455;SDS011;18912;43.270;27.942;2023-09-19T04:27:10;13.83;;;7.77;;
32455;SDS011;18912;43.270;27.942;2023-09-19T04:29:39;11.80;;;7.13;;
32455;SDS011;18912;43.270;27.942;2023-09-19T04:32:06;12.25;;;8.10;;
32455;SDS011;18912;43.270;27.942;2023-09-19T04:34:33;21.80;;;9.02;;
32455;SDS011;18912;43.270;27.942;2023-09-19T04:37:05;13.30;;;7.97;;
32455;SDS011;18912;43.270;27.942;2023-09-19T04:39:30;19.00;;;7.73;;
32455;SDS011;18912;43.270;27.942;2023-09-19T04:41:56;19.57;;;7.47;;
32455;SDS011;18912;43.270;27.942;2023-09-19T04:44:22;40.72;;;7.93;;
32455;SDS011;18912;43.270;27.942;2023-09-19T04:46:48;16.23;;;7.70;;
32455;SDS011;18912;43.270;27.942;2023-09-19T04:49:13;14.63;;;8.10;;
32455;SDS011;18912;43.270;27.942;2023-09-19T04:51:39;15.33;;;7.60;;
32455;SDS011;18912;43.270;27.942;2023-09-19T04:54:05;16.70;;;7.70;;
32455;SDS011;18912;43.270;27.942;2023-09-19T04:56:31;13.38;;;7.30;;
32455;SDS011;18912;43.270;27.942;2023-09-19T04:58:57;32.30;;;8.73;;
32455;SDS011;18912;43.270;27.942;2023-09-19T05:01:24;19.13;;;7.53;;
32455;SDS011;18912;43.270;27.942;2023-09-19T05:03:50;22.75;;;8.52;;
32455;SDS011;18912;43.270;27.942;2023-09-19T05:06:21;23.50;;;8.50;;
32455;SDS011;18912;43.270;27.942;2023-09-19T05:08:47;30.95;;;7.68;;
32455;SDS011;18912;43.270;27.942;2023-09-19T05:11:17;17.10;;;8.82;;
32455;SDS011;18912;43.270;27.942;2023-09-19T05:13:49;12.35;;;7.97;;
32455;SDS011;18912;43.270;27.942;2023-09-19T05:16:16;16.00;;;8.10;;
32455;SDS011;18912;43.270;27.942;2023-09-19T05:18:42;21.55;;;7.53;;
32455;SDS011;18912;43.270;27.942;2023-09-19T05:21:07;20.97;;;7.60;;
32455;SDS011;18912;43.270;27.942;2023-09-19T05:23:33;15.93;;;7.50;;
32455;SDS011;18912;43.270;27.942;2023-09-19T05:25:59;7.35;;;4.93;;
32455;SDS011;18912;43.270;27.942;2023-09-19T05:28:25;24.30;;;8.00;;
32455;SDS011;18912;43.270;27.942;2023-09-19T05:30:52;14.70;;;6.25;;
32455;SDS011;18912;43.270;27.942;2023-09-19T05:33:18;12.68;;;6.47;;
32455;SDS011;18912;43.270;27.942;2023-09-19T05:35:44;13.07;;;6.72;;
32455;SDS011;18912;43.270;27.942;2023-09-19T05:38:12;10.73;;;6.10;;
32455;SDS011;18912;43.270;27.942;2023-09-19T05:40:38;10.38;;;5.22;;
32455;SDS011;18912;43.270;27.942;2023-09-19T05:43:07;7.90;;;5.40;;
32455;SDS011;18912;43.270;27.942;2023-09-19T05:45:33;9.10;;;5.25;;
32455;SDS011;18912;43.270;27.942;2023-09-19T05:48:06;7.57;;;5.10;;
32455;SDS011;18912;43.270;27.942;2023-09-19T05:50:33;9.55;;;4.72;;
32455;SDS011;18912;43.270;27.942;2023-09-19T05:52:59;8.87;;;4.37;;
32455;SDS011;18912;43.270;27.942;2023-09-19T05:55:24;6.47;;;4.20;;
32455;SDS011;18912;43.270;27.942;2023-09-19T05:57:50;12.37;;;4.20;;
32455;SDS011;18912;43.270;27.942;2023-09-19T06:00:18;6.18;;;3.60;;
32455;SDS011;18912;43.270;27.942;2023-09-19T06:02:49;6.25;;;4.13;;
32455;SDS011;18912;43.270;27.942;2023-09-19T06:05:24;5.55;;;3.95;;
32455;SDS011;18912;43.270;27.942;2023-09-19T06:07:55;13.90;;;3.90;;
32455;SDS011;18912;43.270;27.942;2023-09-19T06:10:24;7.03;;;3.85;;
32455;SDS011;18912;43.270;27.942;2023-09-19T06:12:51;4.40;;;3.47;;
32455;SDS011;18912;43.270;27.942;2023-09-19T06:15:16;5.37;;;4.20;;
32455;SDS011;18912;43.270;27.942;2023-09-19T06:20:20;7.15;;;3.67;;
32455;SDS011;18912;43.270;27.942;2023-09-19T06:22:47;6.80;;;4.07;;
32455;SDS011;18912;43.270;27.942;2023-09-19T06:25:13;5.55;;;3.63;;
32455;SDS011;18912;43.270;27.942;2023-09-19T06:27:49;7.45;;;3.90;;
32455;SDS011;18912;43.270;27.942;2023-09-19T06:30:18;9.35;;;3.60;;
32455;SDS011;18912;43.270;27.942;2023-09-19T06:32:44;7.90;;;3.75;;
32455;SDS011;18912;43.270;27.942;2023-09-19T06:35:14;10.67;;;3.90;;
32455;SDS011;18912;43.270;27.942;2023-09-19T06:37:41;10.95;;;4.25;;
32455;SDS011;18912;43.270;27.942;2023-09-19T06:42:51;7.25;;;3.78;;
32455;SDS011;18912;43.270;27.942;2023-09-19T06:45:19;10.55;;;3.72;;
32455;SDS011;18912;43.270;27.942;2023-09-19T06:47:46;3.97;;;3.10;;
32455;SDS011;18912;43.270;27.942;2023-09-19T06:50:20;6.22;;;3.28;;
32455;SDS011;18912;43.270;27.942;2023-09-19T06:52:53;6.88;;;3.60;;
32455;SDS011;18912;43.270;27.942;2023-09-19T06:55:20;8.35;;;3.50;;
32455;SDS011;18912;43.270;27.942;2023-09-19T06:57:50;7.18;;;3.67;;
32455;SDS011;18912;43.270;27.942;2023-09-19T07:00:16;8.07;;;3.93;;
32455;SDS011;18912;43.270;27.942;2023-09-19T07:02:43;7.95;;;3.90;;
32455;SDS011;18912;43.270;27.942;2023-09-19T07:05:31;6.07;;;3.50;;
32455;SDS011;18912;43.270;27.942;2023-09-19T07:07:57;9.40;;;3.83;;
32455;SDS011;18912;43.270;27.942;2023-09-19T07:10:24;14.25;;;3.97;;
32455;SDS011;18912;43.270;27.942;2023-09-19T07:12:58;5.32;;;3.22;;
32455;SDS011;18912;43.270;27.942;2023-09-19T07:15:25;9.75;;;3.70;;
32455;SDS011;18912;43.270;27.942;2023-09-19T07:17:52;9.15;;;3.72;;
32455;SDS011;18912;43.270;27.942;2023-09-19T07:20:21;11.77;;;4.05;;
32455;SDS011;18912;43.270;27.942;2023-09-19T07:22:48;10.15;;;3.72;;
32455;SDS011;18912;43.270;27.942;2023-09-19T07:25:15;15.25;;;5.03;;
32455;SDS011;18912;43.270;27.942;2023-09-19T07:27:41;6.13;;;4.00;;
32455;SDS011;18912;43.270;27.942;2023-09-19T07:30:07;13.03;;;3.93;;
32455;SDS011;18912;43.270;27.942;2023-09-19T07:32:34;17.17;;;3.92;;
32455;SDS011;18912;43.270;27.942;2023-09-19T07:35:02;8.90;;;4.05;;
32455;SDS011;18912;43.270;27.942;2023-09-19T07:37:29;44.33;;;12.95;;
32455;SDS011;18912;43.270;27.942;2023-09-19T07:39:59;7.57;;;3.83;;
32455;SDS011;18912;43.270;27.942;2023-09-19T07:42:33;6.45;;;3.58;;
32455;SDS011;18912;43.270;27.942;2023-09-19T07:45:01;4.22;;;3.60;;
32455;SDS011;18912;43.270;27.942;2023-09-19T07:47:26;12.63;;;4.15;;
32455;SDS011;18912;43.270;27.942;2023-09-19T07:49:52;10.60;;;4.03;;
32455;SDS011;18912;43.270;27.942;2023-09-19T07:52:19;5.90;;;4.00;;
32455;SDS011;18912;43.270;27.942;2023-09-19T07:54:47;9.95;;;4.15;;
32455;SDS011;18912;43.270;27.942;2023-09-19T07:59:40;5.80;;;3.55;;
32455;SDS011;18912;43.270;27.942;2023-09-19T08:02:07;10.73;;;3.90;;
32455;SDS011;18912;43.270;27.942;2023-09-19T08:04:41;15.98;;;4.10;;
32455;SDS011;18912;43.270;27.942;2023-09-19T08:07:08;9.32;;;4.13;;
32455;SDS011;18912;43.270;27.942;2023-09-19T08:09:33;5.05;;;3.80;;
32455;SDS011;18912;43.270;27.942;2023-09-19T08:11:59;7.07;;;4.23;;
32455;SDS011;18912;43.270;27.942;2023-09-19T08:14:27;9.20;;;3.00;;
32455;SDS011;18912;43.270;27.942;2023-09-19T08:16:56;5.53;;;3.85;;
32455;SDS011;18912;43.270;27.942;2023-09-19T08:19:23;13.15;;;3.45;;
32455;SDS011;18912;43.270;27.942;2023-09-19T08:21:53;9.88;;;3.10;;
32455;SDS011;18912;43.270;27.942;2023-09-19T08:24:26;4.75;;;3.42;;
32455;SDS011;18912;43.270;27.942;2023-09-19T08:26:53;7.03;;;3.55;;
32455;SDS011;18912;43.270;27.942;2023-09-19T08:29:20;17.58;;;3.60;;
32455;SDS011;18912;43.270;27.942;2023-09-19T08:31:52;7.38;;;3.33;;
32455;SDS011;18912;43.270;27.942;2023-09-19T08:34:22;6.70;;;3.30;;
32455;SDS011;18912;43.270;27.942;2023-09-19T08:36:49;4.40;;;3.05;;
32455;SDS011;18912;43.270;27.942;2023-09-19T08:39:21;4.90;;;3.40;;
32455;SDS011;18912;43.270;27.942;2023-09-19T08:41:47;9.68;;;3.38;;
32455;SDS011;18912;43.270;27.942;2023-09-19T08:44:13;6.43;;;3.00;;
32455;SDS011;18912;43.270;27.942;2023-09-19T08:46:40;10.02;;;3.38;;
32455;SDS011;18912;43.270;27.942;2023-09-19T08:49:33;8.07;;;3.80;;
32455;SDS011;18912;43.270;27.942;2023-09-19T08:55:06;6.18;;;3.25;;
32455;SDS011;18912;43.270;27.942;2023-09-19T08:57:35;6.75;;;3.13;;
32455;SDS011;18912;43.270;27.942;2023-09-19T09:00:06;4.25;;;2.95;;
32455;SDS011;18912;43.270;27.942;2023-09-19T09:02:39;5.78;;;3.30;;
32455;SDS011;18912;43.270;27.942;2023-09-19T09:05:07;6.82;;;3.88;;
32455;SDS011;18912;43.270;27.942;2023-09-19T09:07:34;10.15;;;3.60;;
32455;SDS011;18912;43.270;27.942;2023-09-19T09:10:04;4.55;;;3.00;;
32455;SDS011;18912;43.270;27.942;2023-09-19T09:12:31;7.22;;;3.47;;
32455;SDS011;18912;43.270;27.942;2023-09-19T09:14:56;8.70;;;3.80;;
32455;SDS011;18912;43.270;27.942;2023-09-19T09:17:25;11.13;;;3.08;;
32455;SDS011;18912;43.270;27.942;2023-09-19T09:19:54;7.38;;;3.10;;
32455;SDS011;18912;43.270;27.942;2023-09-19T09:22:20;6.95;;;3.00;;
32455;SDS011;18912;43.270;27.942;2023-09-19T09:27:24;6.25;;;3.13;;
32455;SDS011;18912;43.270;27.942;2023-09-19T09:29:50;7.00;;;3.07;;
32455;SDS011;18912;43.270;27.942;2023-09-19T09:34:56;4.43;;;3.03;;
32455;SDS011;18912;43.270;27.942;2023-09-19T09:37:23;6.10;;;3.50;;
32455;SDS011;18912;43.270;27.942;2023-09-19T09:42:28;4.38;;;3.05;;
32455;SDS011;18912;43.270;27.942;2023-09-19T09:45:16;6.63;;;3.33;;
32455;SDS011;18912;43.270;27.942;2023-09-19T09:47:45;5.53;;;2.95;;
32455;SDS011;18912;43.270;27.942;2023-09-19T09:50:23;4.63;;;2.80;;
32455;SDS011;18912;43.270;27.942;2023-09-19T09:53:24;7.10;;;3.33;;
32455;SDS011;18912;43.270;27.942;2023-09-19T09:58:34;7.97;;;3.30;;
32455;SDS011;18912;43.270;27.942;2023-09-19T10:01:14;6.90;;;3.55;;
32455;SDS011;18912;43.270;27.942;2023-09-19T10:03:43;7.00;;;3.05;;
32455;SDS011;18912;43.270;27.942;2023-09-19T10:06:13;7.68;;;3.17;;
32455;SDS011;18912;43.270;27.942;2023-09-19T10:11:45;6.35;;;3.40;;
32455;SDS011;18912;43.270;27.942;2023-09-19T10:14:16;7.63;;;3.38;;
32455;SDS011;18912;43.270;27.942;2023-09-19T10:16:45;7.50;;;3.92;;
32455;SDS011;18912;43.270;27.942;2023-09-19T10:19:17;6.75;;;3.40;;
32455;SDS011;18912;43.270;27.942;2023-09-19T10:21:54;12.10;;;3.30;;
32455;SDS011;18912;43.270;27.942;2023-09-19T10:24:23;12.50;;;3.85;;
32455;SDS011;18912;43.270;27.942;2023-09-19T10:26:51;6.75;;;3.78;;
32455;SDS011;18912;43.270;27.942;2023-09-19T10:29:19;10.38;;;3.15;;
32455;SDS011;18912;43.270;27.942;2023-09-19T10:31:49;4.82;;;3.30;;
32455;SDS011;18912;43.270;27.942;2023-09-19T10:34:18;11.90;;;3.53;;
32455;SDS011;18912;43.270;27.942;2023-09-19T10:36:46;8.52;;;3.85;;
32455;SDS011;18912;43.270;27.942;2023-09-19T10:39:15;5.35;;;3.92;;
32455;SDS011;18912;43.270;27.942;2023-09-19T10:41:51;5.43;;;3.30;;
32455;SDS011;18912;43.270;27.942;2023-09-19T10:44:25;8.02;;;3.70;;
32455;SDS011;18912;43.270;27.942;2023-09-19T10:46:52;9.13;;;3.90;;
32455;SDS011;18912;43.270;27.942;2023-09-19T10:49:19;5.82;;;3.80;;
32455;SDS011;18912;43.270;27.942;2023-09-19T10:51:45;8.38;;;4.10;;
32455;SDS011;18912;43.270;27.942;2023-09-19T10:54:15;6.63;;;3.50;;
32455;SDS011;18912;43.270;27.942;2023-09-19T10:56:46;6.68;;;3.53;;
32455;SDS011;18912;43.270;27.942;2023-09-19T10:59:15;5.88;;;3.40;;
32455;SDS011;18912;43.270;27.942;2023-09-19T11:04:33;13.23;;;3.95;;
32455;SDS011;18912;43.270;27.942;2023-09-19T11:09:43;5.63;;;4.15;;
32455;SDS011;18912;43.270;27.942;2023-09-19T11:15:11;5.47;;;3.30;;
32455;SDS011;18912;43.270;27.942;2023-09-19T11:27:12;13.05;;;4.43;;
32455;SDS011;18912;43.270;27.942;2023-09-19T11:29:39;8.02;;;3.67;;
32455;SDS011;18912;43.270;27.942;2023-09-19T11:32:05;8.93;;;3.65;;
32455;SDS011;18912;43.270;27.942;2023-09-19T11:39:36;7.18;;;3.88;;
32455;SDS011;18912;43.270;27.942;2023-09-19T11:42:40;7.90;;;4.10;;
32455;SDS011;18912;43.270;27.942;2023-09-19T11:45:48;9.77;;;3.90;;
32455;SDS011;18912;43.270;27.942;2023-09-19T11:48:20;11.60;;;4.20;;
32455;SDS011;18912;43.270;27.942;2023-09-19T11:50:50;9.85;;;4.40;;
32455;SDS011;18912;43.270;27.942;2023-09-19T11:53:17;12.77;;;3.83;;
32455;SDS011;18912;43.270;27.942;2023-09-19T11:55:45;6.63;;;4.13;;
32455;SDS011;18912;43.270;27.942;2023-09-19T11:58:11;5.55;;;3.80;;
32455;SDS011;18912;43.270;27.942;2023-09-19T12:00:39;7.28;;;3.63;;
32455;SDS011;18912;43.270;27.942;2023-09-19T12:03:09;5.25;;;3.63;;
32455;SDS011;18912;43.270;27.942;2023-09-19T12:05:36;8.18;;;4.45;;
32455;SDS011;18912;43.270;27.942;2023-09-19T12:08:02;11.88;;;4.63;;
32455;SDS011;18912;43.270;27.942;2023-09-19T12:10:32;11.93;;;4.43;;
32455;SDS011;18912;43.270;27.942;2023-09-19T12:12:58;7.23;;;3.87;;
32455;SDS011;18912;43.270;27.942;2023-09-19T12:17:54;7.35;;;3.88;;
32455;SDS011;18912;43.270;27.942;2023-09-19T12:20:20;15.10;;;4.03;;
32455;SDS011;18912;43.270;27.942;2023-09-19T12:22:46;14.00;;;3.95;;
32455;SDS011;18912;43.270;27.942;2023-09-19T12:25:12;13.35;;;4.65;;
32455;SDS011;18912;43.270;27.942;2023-09-19T12:27:41;8.20;;;4.32;;
32455;SDS011;18912;43.270;27.942;2023-09-19T12:30:14;8.88;;;3.90;;
32455;SDS011;18912;43.270;27.942;2023-09-19T12:32:43;6.80;;;4.32;;
32455;SDS011;18912;43.270;27.942;2023-09-19T12:35:09;15.25;;;4.40;;
32455;SDS011;18912;43.270;27.942;2023-09-19T12:37:43;7.43;;;4.10;;
32455;SDS011;18912;43.270;27.942;2023-09-19T12:40:13;10.88;;;4.15;;
32455;SDS011;18912;43.270;27.942;2023-09-19T12:42:50;9.60;;;4.13;;
32455;SDS011;18912;43.270;27.942;2023-09-19T12:45:18;8.93;;;3.80;;
32455;SDS011;18912;43.270;27.942;2023-09-19T12:48:30;11.05;;;4.00;;
32455;SDS011;18912;43.270;27.942;2023-09-19T12:51:02;10.88;;;4.35;;
32455;SDS011;18912;43.270;27.942;2023-09-19T12:53:40;11.48;;;4.30;;
32455;SDS011;18912;43.270;27.942;2023-09-19T12:56:10;13.10;;;4.00;;
32455;SDS011;18912;43.270;27.942;2023-09-19T12:58:52;15.27;;;4.30;;
32455;SDS011;18912;43.270;27.942;2023-09-19T13:01:24;13.10;;;4.28;;
32455;SDS011;18912;43.270;27.942;2023-09-19T13:06:53;8.90;;;4.03;;
32455;SDS011;18912;43.270;27.942;2023-09-19T13:09:20;8.98;;;3.60;;
32455;SDS011;18912;43.270;27.942;2023-09-19T13:11:47;11.68;;;4.38;;
32455;SDS011;18912;43.270;27.942;2023-09-19T13:14:24;13.60;;;4.28;;
32455;SDS011;18912;43.270;27.942;2023-09-19T13:22:02;9.07;;;3.88;;
32455;SDS011;18912;43.270;27.942;2023-09-19T13:24:28;16.50;;;4.43;;
32455;SDS011;18912;43.270;27.942;2023-09-19T13:26:55;12.75;;;4.53;;
32455;SDS011;18912;43.270;27.942;2023-09-19T13:29:21;4.72;;;3.78;;
32455;SDS011;18912;43.270;27.942;2023-09-19T13:31:50;10.40;;;3.93;;
32455;SDS011;18912;43.270;27.942;2023-09-19T13:34:20;10.00;;;4.57;;
32455;SDS011;18912;43.270;27.942;2023-09-19T13:36:46;11.15;;;4.18;;
32455;SDS011;18912;43.270;27.942;2023-09-19T13:39:14;20.20;;;4.18;;
32455;SDS011;18912;43.270;27.942;2023-09-19T13:41:49;9.70;;;4.65;;
32455;SDS011;18912;43.270;27.942;2023-09-19T13:44:15;11.60;;;4.07;;
32455;SDS011;18912;43.270;27.942;2023-09-19T13:46:42;14.35;;;4.18;;
32455;SDS011;18912;43.270;27.942;2023-09-19T13:49:11;9.63;;;4.43;;
32455;SDS011;18912;43.270;27.942;2023-09-19T13:51:36;12.23;;;3.80;;
32455;SDS011;18912;43.270;27.942;2023-09-19T13:54:02;15.37;;;3.97;;
32455;SDS011;18912;43.270;27.942;2023-09-19T13:56:28;13.23;;;5.00;;
32455;SDS011;18912;43.270;27.942;2023-09-19T13:58:54;6.03;;;3.60;;
32455;SDS011;18912;43.270;27.942;2023-09-19T14:01:20;10.52;;;3.80;;
32455;SDS011;18912;43.270;27.942;2023-09-19T14:03:45;6.30;;;3.72;;
32455;SDS011;18912;43.270;27.942;2023-09-19T14:06:14;10.23;;;4.03;;
32455;SDS011;18912;43.270;27.942;2023-09-19T14:08:40;5.93;;;4.00;;
32455;SDS011;18912;43.270;27.942;2023-09-19T14:11:08;13.00;;;4.07;;
32455;SDS011;18912;43.270;27.942;2023-09-19T14:13:34;8.73;;;3.92;;
32455;SDS011;18912;43.270;27.942;2023-09-19T14:16:03;9.07;;;4.63;;
32455;SDS011;18912;43.270;27.942;2023-09-19T14:18:30;9.95;;;3.75;;
32455;SDS011;18912;43.270;27.942;2023-09-19T14:20:56;12.88;;;4.25;;
32455;SDS011;18912;43.270;27.942;2023-09-19T14:23:22;14.03;;;4.13;;
32455;SDS011;18912;43.270;27.942;2023-09-19T14:25:48;13.73;;;3.95;;
32455;SDS011;18912;43.270;27.942;2023-09-19T14:28:15;9.73;;;4.07;;
32455;SDS011;18912;43.270;27.942;2023-09-19T14:30:40;11.40;;;4.13;;
32455;SDS011;18912;43.270;27.942;2023-09-19T14:33:06;11.23;;;4.20;;
32455;SDS011;18912;43.270;27.942;2023-09-19T14:35:32;8.35;;;4.43;;
32455;SDS011;18912;43.270;27.942;2023-09-19T14:37:57;6.13;;;3.63;;
32455;SDS011;18912;43.270;27.942;2023-09-19T14:40:23;6.13;;;3.73;;
32455;SDS011;18912;43.270;27.942;2023-09-19T14:42:48;5.57;;;3.80;;
32455;SDS011;18912;43.270;27.942;2023-09-19T14:45:14;12.50;;;3.50;;
32455;SDS011;18912;43.270;27.942;2023-09-19T14:47:43;8.85;;;4.32;;
32455;SDS011;18912;43.270;27.942;2023-09-19T14:50:11;12.45;;;3.97;;
32455;SDS011;18912;43.270;27.942;2023-09-19T14:52:37;12.05;;;4.57;;
32455;SDS011;18912;43.270;27.942;2023-09-19T14:55:05;10.25;;;4.20;;
32455;SDS011;18912;43.270;27.942;2023-09-19T14:57:31;12.95;;;4.05;;
32455;SDS011;18912;43.270;27.942;2023-09-19T14:59:57;9.53;;;4.53;;
32455;SDS011;18912;43.270;27.942;2023-09-19T15:02:24;18.13;;;4.90;;
32455;SDS011;18912;43.270;27.942;2023-09-19T15:04:49;10.57;;;4.63;;
32455;SDS011;18912;43.270;27.942;2023-09-19T15:07:15;11.98;;;4.32;;
32455;SDS011;18912;43.270;27.942;2023-09-19T15:09:42;12.90;;;4.03;;
32455;SDS011;18912;43.270;27.942;2023-09-19T15:12:08;9.48;;;4.22;;
32455;SDS011;18912;43.270;27.942;2023-09-19T15:14:35;13.23;;;4.13;;
32455;SDS011;18912;43.270;27.942;2023-09-19T15:17:00;11.90;;;4.07;;
32455;SDS011;18912;43.270;27.942;2023-09-19T15:19:29;15.25;;;3.90;;
32455;SDS011;18912;43.270;27.942;2023-09-19T15:21:55;8.60;;;4.05;;
32455;SDS011;18912;43.270;27.942;2023-09-19T15:24:22;9.52;;;4.22;;
32455;SDS011;18912;43.270;27.942;2023-09-19T15:26:48;11.00;;;5.00;;
32455;SDS011;18912;43.270;27.942;2023-09-19T15:29:14;7.25;;;4.30;;
32455;SDS011;18912;43.270;27.942;2023-09-19T15:31:41;9.68;;;3.92;;
32455;SDS011;18912;43.270;27.942;2023-09-19T15:34:06;13.23;;;4.67;;
32455;SDS011;18912;43.270;27.942;2023-09-19T15:36:32;7.57;;;3.80;;
32455;SDS011;18912;43.270;27.942;2023-09-19T15:39:02;9.93;;;3.87;;
32455;SDS011;18912;43.270;27.942;2023-09-19T15:41:42;9.50;;;3.70;;
32455;SDS011;18912;43.270;27.942;2023-09-19T15:44:13;9.90;;;4.22;;
32455;SDS011;18912;43.270;27.942;2023-09-19T15:46:40;5.32;;;3.70;;
32455;SDS011;18912;43.270;27.942;2023-09-19T15:49:06;6.53;;;4.07;;
32455;SDS011;18912;43.270;27.942;2023-09-19T15:51:33;8.65;;;3.50;;